Time;durP1;ratioP1;P1;durP2;ratioP2;P2;SDS_P1;SDS_P2;PMS_P1;PMS_P2;Temp;Humidity;BMP_temperature;BMP_pressure;BME280_temperature;BME280_humidity;BME280_pressure;Samples;Min_cycle;Max_cycle;Signal;HPM_P1;HPM_P2
2023/01/06 00:00:12;;;;;;;6.70;3.88;;;4.70;1.00;;;;;;6250259;23;20213;-81
2023/01/06 00:02:39;;;;;;;9.02;4.15;;;5.20;1.00;;;;;;6250891;22;20174;-81
2023/01/06 00:05:07;;;;;;;6.30;3.22;;;4.80;99.90;;;;;;6249741;23;20222;-81
2023/01/06 00:07:33;;;;;;;5.40;3.40;;;4.90;1.00;;;;;;6249826;23;20202;-81
2023/01/06 00:10:00;;;;;;;5.97;3.33;;;4.90;1.00;;;;;;6249792;23;20533;-81
2023/01/06 00:12:27;;;;;;;5.85;3.90;;;5.00;1.00;;;;;;6249833;23;20265;-81
2023/01/06 00:14:54;;;;;;;7.03;4.70;;;5.10;99.90;;;;;;6249765;22;20194;-81
2023/01/06 00:17:22;;;;;;;5.32;3.10;;;5.20;99.90;;;;;;6250663;23;20181;-80
2023/01/06 00:19:49;;;;;;;5.63;3.60;;;5.20;1.00;;;;;;6252959;23;20262;-79
2023/01/06 00:22:16;;;;;;;6.95;3.13;;;5.30;1.00;;;;;;6250679;23;20213;-79
2023/01/06 00:24:43;;;;;;;4.78;3.33;;;5.30;1.00;;;;;;6254813;22;20277;-79
2023/01/06 00:27:10;;;;;;;5.97;3.88;;;5.30;1.00;;;;;;6255569;23;20278;-79
2023/01/06 00:29:37;;;;;;;6.25;3.40;;;5.30;1.00;;;;;;6256075;23;20261;-78
2023/01/06 00:32:04;;;;;;;6.35;3.70;;;5.20;1.00;;;;;;6256534;23;20186;-79
2023/01/06 00:34:32;;;;;;;4.75;3.90;;;5.20;99.90;;;;;;6255263;22;20213;-79
2023/01/06 00:36:59;;;;;;;6.38;4.03;;;5.20;1.00;;;;;;6255819;23;20576;-79
2023/01/06 00:39:25;;;;;;;8.27;4.70;;;5.10;1.00;;;;;;6257007;23;20257;-80
2023/01/06 00:42:04;;;;;;;4.88;3.90;;;5.10;87.10;;;;;;6256316;23;20229;-79
2023/01/06 00:44:32;;;;;;;7.25;4.53;;;5.10;99.90;;;;;;6251385;22;20675;-80
2023/01/06 00:46:59;;;;;;;8.93;4.38;;;5.10;99.90;;;;;;6257214;23;20182;-79
2023/01/06 00:49:26;;;;;;;3.53;3.22;;;5.00;99.90;;;;;;6257185;23;20198;-79
2023/01/06 00:51:54;;;;;;;3.38;3.15;;;5.10;1.00;;;;;;6262342;23;20181;-80
2023/01/06 00:54:21;;;;;;;7.20;3.25;;;5.10;99.90;;;;;;6266685;22;20254;-80
2023/01/06 00:56:49;;;;;;;5.07;3.65;;;5.00;25.80;;;;;;6267787;23;20182;-81
2023/01/06 00:59:17;;;;;;;6.70;3.10;;;5.00;1.00;;;;;;6258081;23;20185;-81
2023/01/06 01:01:46;;;;;;;5.22;4.00;;;5.00;1.00;;;;;;6257665;23;20254;-81
2023/01/06 01:04:13;;;;;;;5.38;2.92;;;5.00;99.90;;;;;;6251657;22;20201;-81
2023/01/06 01:06:41;;;;;;;6.05;2.88;;;5.00;99.90;;;;;;6256541;23;20715;-78
2023/01/06 01:09:13;;;;;;;7.93;3.17;;;5.00;99.90;;;;;;6258088;23;20260;-78
2023/01/06 01:14:24;;;;;;;4.20;3.30;;;5.00;99.90;;;;;;6272758;22;20225;-80
2023/01/06 01:16:51;;;;;;;7.43;3.17;;;5.10;99.90;;;;;;6271577;23;20165;-81
2023/01/06 01:19:19;;;;;;;4.10;3.10;;;5.10;99.90;;;;;;6257887;23;20578;-80
2023/01/06 01:21:46;;;;;;;4.95;2.80;;;5.00;99.90;;;;;;6255527;23;20181;-81
2023/01/06 01:24:14;;;;;;;5.30;3.35;;;5.00;99.90;;;;;;6251714;22;20273;-81
2023/01/06 01:26:41;;;;;;;6.18;3.25;;;5.00;99.90;;;;;;6251086;23;20277;-80
2023/01/06 01:29:11;;;;;;;7.28;3.05;;;5.00;99.90;;;;;;6249784;23;20178;-81
2023/01/06 01:31:38;;;;;;;9.45;3.22;;;4.90;99.90;;;;;;6249150;23;20254;-81
2023/01/06 01:34:04;;;;;;;5.10;2.88;;;4.90;99.90;;;;;;6250296;22;20202;-81
2023/01/06 01:36:31;;;;;;;8.38;3.40;;;4.90;1.00;;;;;;6251327;23;20171;-81
2023/01/06 01:38:59;;;;;;;3.42;3.13;;;4.90;1.00;;;;;;6258914;23;20669;-79
2023/01/06 01:41:29;;;;;;;6.85;2.67;;;4.90;1.00;;;;;;6258994;23;20253;-78
2023/01/06 01:43:59;;;;;;;7.22;3.53;;;4.90;1.00;;;;;;6257429;22;20194;-80
2023/01/06 01:46:29;;;;;;;6.50;2.88;;;4.80;99.90;;;;;;6255553;23;20204;-81
2023/01/06 01:48:59;;;;;;;5.78;2.28;;;4.90;1.00;;;;;;6254138;23;20258;-82
2023/01/06 01:51:30;;;;;;;3.47;2.50;;;4.90;99.90;;;;;;6250453;23;20158;-82
2023/01/06 01:54:07;;;;;;;5.45;3.20;;;4.80;99.90;;;;;;6250906;22;20250;-81
2023/01/06 01:56:41;;;;;;;3.85;3.17;;;4.80;99.90;;;;;;6251160;23;20158;-81
2023/01/06 01:59:11;;;;;;;3.15;2.35;;;4.80;99.90;;;;;;6250080;23;20167;-81
2023/01/06 02:01:38;;;;;;;4.68;2.10;;;4.90;99.90;;;;;;6259154;23;20250;-80
2023/01/06 02:04:06;;;;;;;4.00;2.55;;;4.80;99.90;;;;;;6248726;22;20218;-81
2023/01/06 02:06:33;;;;;;;4.68;2.25;;;4.80;99.90;;;;;;6249507;23;20195;-81
2023/01/06 02:09:04;;;;;;;8.00;2.65;;;4.80;99.90;;;;;;6249097;23;20185;-81
2023/01/06 02:11:33;;;;;;;5.68;3.05;;;4.80;99.90;;;;;;6249089;23;20162;-82
2023/01/06 02:14:09;;;;;;;3.45;2.00;;;4.80;99.90;;;;;;6248661;22;20198;-81
2023/01/06 02:16:47;;;;;;;2.40;2.20;;;4.70;99.90;;;;;;6248753;23;20540;-81
2023/01/06 02:19:40;;;;;;;3.67;2.17;;;4.70;1.00;;;;;;6248599;23;20234;-81
2023/01/06 02:22:24;;;;;;;3.10;2.20;;;4.70;1.00;;;;;;6248738;23;20245;-81
2023/01/06 02:25:12;;;;;;;2.92;1.95;;;4.70;1.00;;;;;;6248986;22;20194;-81
2023/01/06 02:28:11;;;;;;;3.00;2.30;;;4.60;1.00;;;;;;6248793;23;20155;-81
2023/01/06 02:31:02;;;;;;;3.28;2.50;;;4.60;1.00;;;;;;6244760;23;20698;-81
2023/01/06 02:33:37;;;;;;;8.63;3.58;;;4.60;1.00;;;;;;6247296;22;20261;-79
2023/01/06 02:36:29;;;;;;;6.47;3.13;;;4.60;1.00;;;;;;6226814;23;20241;-81
2023/01/06 02:39:14;;;;;;;3.50;2.30;;;4.60;99.90;;;;;;6225546;23;20186;-80
2023/01/06 02:41:43;;;;;;;3.65;2.08;;;4.80;1.00;;;;;;6224810;23;20159;-81
2023/01/06 02:44:18;;;;;;;5.72;2.83;;;4.30;1.00;;;;;;6211775;23;20196;-80
2023/01/06 02:47:00;;;;;;;9.00;3.08;;;4.60;99.90;;;;;;6193282;23;20184;-81
2023/01/06 02:49:32;;;;;;;2.83;2.33;;;4.60;99.90;;;;;;6193987;23;20549;-81
2023/01/06 02:52:04;;;;;;;4.20;2.70;;;4.60;99.90;;;;;;6194753;23;20602;-81
2023/01/06 02:54:38;;;;;;;5.70;2.83;;;4.60;99.90;;;;;;6194237;23;20196;-80
2023/01/06 02:57:14;;;;;;;6.22;3.28;;;4.60;99.90;;;;;;6191616;23;20156;-80
2023/01/06 02:59:49;;;;;;;3.20;2.92;;;4.60;1.00;;;;;;6191705;23;20501;-80
2023/01/06 03:02:18;;;;;;;5.05;2.50;;;4.60;1.00;;;;;;6191747;23;20165;-80
2023/01/06 03:04:49;;;;;;;8.13;2.20;;;4.70;1.00;;;;;;6193939;23;20334;-81
2023/01/06 03:07:20;;;;;;;7.45;2.50;;;4.80;99.90;;;;;;6205853;23;20184;-80
2023/01/06 03:09:50;;;;;;;3.85;2.72;;;4.80;99.90;;;;;;6193283;23;20263;-81
2023/01/06 03:12:23;;;;;;;3.67;3.15;;;5.20;99.90;;;;;;6199053;23;20160;-80
2023/01/06 03:14:53;;;;;;;6.35;4.05;;;4.90;1.00;;;;;;6206414;23;20219;-80
2023/01/06 03:17:20;;;;;;;5.20;2.20;;;4.90;1.00;;;;;;6205817;23;20228;-80
2023/01/06 03:19:48;;;;;;;2.15;1.88;;;4.90;1.00;;;;;;6203110;23;20210;-80
2023/01/06 03:22:17;;;;;;;2.53;2.28;;;4.90;1.00;;;;;;6199523;23;20187;-80
2023/01/06 03:24:45;;;;;;;6.88;2.15;;;4.80;1.00;;;;;;6195334;23;20200;-81
2023/01/06 03:27:11;;;;;;;2.90;2.25;;;4.80;1.00;;;;;;6198261;23;20192;-81
2023/01/06 03:29:39;;;;;;;3.38;2.17;;;4.80;1.00;;;;;;6203144;23;20208;-80
2023/01/06 03:32:12;;;;;;;8.63;2.28;;;4.60;51.60;;;;;;6198991;23;20191;-81
2023/01/06 03:34:57;;;;;;;5.65;1.90;;;4.90;1.00;;;;;;6210005;23;20207;-80
2023/01/06 03:37:31;;;;;;;6.47;2.30;;;4.80;1.00;;;;;;6224767;23;20547;-81
2023/01/06 03:40:08;;;;;;;2.67;1.95;;;4.80;97.90;;;;;;6229345;23;20170;-80
2023/01/06 03:45:37;;;;;;;2.08;1.67;;;4.50;99.90;;;;;;6235741;23;20364;-81
2023/01/06 03:48:11;;;;;;;4.30;2.08;;;5.00;99.90;;;;;;6235741;23;20163;-80
2023/01/06 03:50:42;;;;;;;5.93;2.28;;;4.70;99.90;;;;;;6232527;23;20171;-80
2023/01/06 03:53:18;;;;;;;3.05;2.00;;;4.80;99.90;;;;;;6227068;23;20203;-80
2023/01/06 03:55:48;;;;;;;5.28;1.92;;;4.80;99.90;;;;;;6231490;23;20164;-80
2023/01/06 03:58:17;;;;;;;3.88;1.63;;;4.80;99.90;;;;;;6237815;23;20211;-79
2023/01/06 04:00:44;;;;;;;3.75;1.88;;;4.80;99.90;;;;;;6245384;23;20167;-79
2023/01/06 04:03:13;;;;;;;6.00;1.70;;;4.90;99.90;;;;;;6245415;23;20166;-79
2023/01/06 04:05:41;;;;;;;2.85;1.40;;;4.90;99.90;;;;;;6244349;23;20164;-80
2023/01/06 04:08:08;;;;;;;4.07;1.65;;;4.90;99.90;;;;;;6236192;23;20183;-80
2023/01/06 04:10:35;;;;;;;2.30;2.00;;;4.90;99.90;;;;;;6227419;23;20230;-81
2023/01/06 04:13:01;;;;;;;2.40;2.17;;;4.90;1.00;;;;;;6228093;23;20179;-82
2023/01/06 04:15:28;;;;;;;5.37;1.93;;;4.90;1.00;;;;;;6224737;23;20194;-81
2023/01/06 04:17:56;;;;;;;5.82;2.95;;;4.90;1.00;;;;;;6224312;23;20410;-82
2023/01/06 04:20:25;;;;;;;3.78;1.85;;;4.90;1.00;;;;;;6224446;23;20274;-81
2023/01/06 04:22:55;;;;;;;2.45;1.90;;;5.00;78.40;;;;;;6221811;23;20263;-81
2023/01/06 04:25:22;;;;;;;3.72;2.17;;;4.90;1.00;;;;;;6221861;23;20199;-80
2023/01/06 04:27:49;;;;;;;4.57;2.42;;;4.90;1.00;;;;;;6223102;23;20215;-80
2023/01/06 04:30:17;;;;;;;5.40;1.77;;;4.90;73.00;;;;;;6223999;23;20520;-81
2023/01/06 04:32:44;;;;;;;6.43;2.55;;;5.00;1.00;;;;;;6227658;23;20190;-80
2023/01/06 04:35:11;;;;;;;2.55;1.67;;;5.00;1.00;;;;;;6230416;23;20207;-80
2023/01/06 04:37:38;;;;;;;2.35;2.15;;;5.00;1.00;;;;;;6234612;23;20171;-80
2023/01/06 04:40:08;;;;;;;5.65;2.90;;;5.00;1.00;;;;;;6223202;23;20179;-81
2023/01/06 04:45:15;;;;;;;6.53;2.60;;;4.90;1.00;;;;;;6223857;23;20221;-80
2023/01/06 04:47:42;;;;;;;7.78;2.65;;;5.00;99.90;;;;;;6235152;23;20192;-80
2023/01/06 04:50:10;;;;;;;3.35;3.10;;;5.00;1.00;;;;;;6227196;23;20171;-81
2023/01/06 04:52:36;;;;;;;4.85;2.75;;;5.00;34.20;;;;;;6221964;23;20218;-81
2023/01/06 04:55:04;;;;;;;7.63;2.83;;;5.00;4.90;;;;;;6221820;23;20205;-80
2023/01/06 04:57:32;;;;;;;5.72;3.20;;;5.00;58.30;;;;;;6222033;23;20171;-81
2023/01/06 04:59:59;;;;;;;3.75;2.38;;;5.00;99.90;;;;;;6220354;23;20656;-80
2023/01/06 05:02:26;;;;;;;2.50;1.80;;;5.00;91.40;;;;;;6220850;23;20179;-81
2023/01/06 05:04:52;;;;;;;3.55;2.10;;;5.00;99.90;;;;;;6221297;23;20743;-81
2023/01/06 05:07:19;;;;;;;3.25;2.00;;;5.00;99.90;;;;;;6220804;23;20202;-79
2023/01/06 05:09:46;;;;;;;4.60;2.67;;;5.00;99.90;;;;;;6224398;23;20249;-80
2023/01/06 05:12:13;;;;;;;4.82;2.75;;;5.00;99.90;;;;;;6222826;23;20227;-81
2023/01/06 05:14:41;;;;;;;2.50;1.95;;;5.00;99.90;;;;;;6221005;23;20199;-81
2023/01/06 05:17:08;;;;;;;4.15;1.98;;;5.00;1.00;;;;;;6225070;23;20175;-81
2023/01/06 05:19:34;;;;;;;3.28;2.60;;;5.00;1.00;;;;;;6223148;23;20179;-80
2023/01/06 05:22:01;;;;;;;4.53;2.50;;;5.00;1.00;;;;;;6222631;23;20194;-80
2023/01/06 05:24:28;;;;;;;2.83;2.28;;;5.30;99.90;;;;;;6222264;23;20247;-80
2023/01/06 05:26:55;;;;;;;3.97;3.00;;;5.00;39.20;;;;;;6220753;23;20195;-80
2023/01/06 05:29:22;;;;;;;2.95;2.13;;;5.00;28.50;;;;;;6221349;23;20267;-80
2023/01/06 05:31:50;;;;;;;6.35;2.10;;;5.30;99.90;;;;;;6221522;23;20262;-80
2023/01/06 05:34:17;;;;;;;4.18;2.50;;;5.00;99.90;;;;;;6228736;23;20238;-80
2023/01/06 05:36:44;;;;;;;5.28;2.42;;;5.00;99.90;;;;;;6223484;23;20206;-80
2023/01/06 05:39:10;;;;;;;6.03;2.20;;;5.10;99.90;;;;;;6221702;23;20221;-79
2023/01/06 05:41:37;;;;;;;10.18;3.42;;;5.10;99.90;;;;;;6225062;23;20229;-80
2023/01/06 05:44:04;;;;;;;2.28;2.08;;;5.10;99.90;;;;;;6224371;23;20527;-79
2023/01/06 05:46:31;;;;;;;4.82;2.95;;;5.00;99.90;;;;;;6226906;23;20198;-80
2023/01/06 05:49:01;;;;;;;2.25;2.15;;;5.00;1.00;;;;;;6227494;23;20213;-80
2023/01/06 05:51:28;;;;;;;3.97;2.63;;;5.10;1.00;;;;;;6224583;23;20178;-80
2023/01/06 05:53:55;;;;;;;4.00;2.65;;;5.00;1.00;;;;;;6225594;23;20281;-80
2023/01/06 05:56:23;;;;;;;3.40;2.13;;;5.10;1.00;;;;;;6224757;23;20180;-80
2023/01/06 05:58:51;;;;;;;3.15;2.28;;;5.10;1.00;;;;;;6223176;23;20231;-80
2023/01/06 06:01:20;;;;;;;7.15;2.65;;;5.10;1.00;;;;;;6221758;23;20481;-79
2023/01/06 06:03:47;;;;;;;5.35;3.45;;;5.10;1.00;;;;;;6221674;23;20201;-80
2023/01/06 06:06:15;;;;;;;7.97;3.28;;;5.10;1.00;;;;;;6221963;23;20266;-79
2023/01/06 06:08:42;;;;;;;3.88;2.50;;;5.10;1.00;;;;;;6221229;23;20258;-80
2023/01/06 06:11:11;;;;;;;14.57;13.27;;;5.10;1.00;;;;;;6220480;23;20277;-80
2023/01/06 06:13:38;;;;;;;4.60;2.80;;;5.10;1.00;;;;;;6221249;23;20206;-81
2023/01/06 06:16:06;;;;;;;3.22;2.45;;;5.00;1.00;;;;;;6227183;23;20699;-81
2023/01/06 06:18:33;;;;;;;8.88;2.90;;;5.10;1.00;;;;;;6238804;23;20187;-80
2023/01/06 06:21:01;;;;;;;7.32;3.17;;;5.10;1.00;;;;;;6234528;23;20203;-80
2023/01/06 06:23:29;;;;;;;3.75;2.75;;;5.20;27.40;;;;;;6223587;23;20175;-81
2023/01/06 06:25:56;;;;;;;2.97;2.67;;;5.20;1.00;;;;;;6230991;23;20230;-80
2023/01/06 06:28:23;;;;;;;4.13;2.47;;;5.00;42.70;;;;;;6224973;23;20568;-81
2023/01/06 06:30:50;;;;;;;3.67;3.28;;;5.20;1.00;;;;;;6222348;23;20227;-80
2023/01/06 06:33:17;;;;;;;6.75;3.60;;;5.30;58.90;;;;;;6224904;23;20199;-80
2023/01/06 06:35:44;;;;;;;8.50;2.75;;;5.30;18.20;;;;;;6229152;23;20191;-80
2023/01/06 06:38:11;;;;;;;5.43;3.20;;;5.20;1.00;;;;;;6230739;23;20203;-80
2023/01/06 06:40:43;;;;;;;4.72;3.08;;;5.20;1.00;;;;;;6234160;23;20203;-84
2023/01/06 06:43:11;;;;;;;4.28;3.05;;;5.40;59.70;;;;;;6232185;23;20171;-84
2023/01/06 06:59:00;;;;;;;7.40;3.22;;;5.20;99.90;;;;;;6168554;22;20655;-84
2023/01/06 07:01:30;;;;;;;3.95;3.55;;;5.40;99.90;;;;;;6261893;22;20304;-83
2023/01/06 07:03:57;;;;;;;6.80;4.30;;;5.20;99.90;;;;;;6261524;22;20616;-82
2023/01/06 07:06:26;;;;;;;6.72;4.00;;;5.20;99.90;;;;;;6262814;22;20209;-83
2023/01/06 07:08:53;;;;;;;4.72;3.05;;;5.30;99.90;;;;;;6243222;22;20226;-83
2023/01/06 07:11:21;;;;;;;8.65;5.00;;;5.30;99.90;;;;;;6233336;23;20667;-83
2023/01/06 07:13:48;;;;;;;10.68;5.43;;;5.20;99.90;;;;;;6232525;23;20231;-83
2023/01/06 07:16:16;;;;;;;14.02;4.50;;;5.20;99.90;;;;;;6232044;23;20199;-82
2023/01/06 07:18:43;;;;;;;5.38;4.20;;;5.30;99.90;;;;;;6231352;23;20207;-83
2023/01/06 07:21:10;;;;;;;9.63;5.10;;;5.30;99.90;;;;;;6231191;23;20171;-83
2023/01/06 07:23:37;;;;;;;8.10;5.32;;;5.40;99.90;;;;;;6232881;23;20187;-83
2023/01/06 07:26:04;;;;;;;9.20;5.90;;;5.30;99.90;;;;;;6234945;23;20235;-83
2023/01/06 07:28:32;;;;;;;10.20;5.03;;;5.60;99.90;;;;;;6243561;23;20184;-81
2023/01/06 07:30:59;;;;;;;11.48;5.97;;;5.40;99.90;;;;;;6244869;22;20231;-83
2023/01/06 07:33:28;;;;;;;10.50;5.50;;;5.40;99.90;;;;;;6244935;22;20207;-84
2023/01/06 07:35:56;;;;;;;9.18;5.22;;;5.30;99.90;;;;;;6240042;23;20179;-84
2023/01/06 07:38:24;;;;;;;8.10;5.38;;;5.50;99.90;;;;;;6237049;23;20227;-83
2023/01/06 07:40:51;;;;;;;7.38;5.28;;;5.60;1.00;;;;;;6234539;23;20186;-82
2023/01/06 07:43:18;;;;;;;8.75;5.82;;;5.40;99.90;;;;;;6233965;23;20205;-83
2023/01/06 07:45:46;;;;;;;19.00;5.93;;;5.40;99.90;;;;;;6233478;23;20199;-84
2023/01/06 07:48:13;;;;;;;8.68;5.57;;;5.40;99.90;;;;;;6233396;23;20230;-83
2023/01/06 07:50:41;;;;;;;10.80;5.57;;;5.50;99.90;;;;;;6233513;23;20202;-83
2023/01/06 07:53:09;;;;;;;10.45;5.45;;;5.50;1.00;;;;;;6234165;23;20186;-80
2023/01/06 07:55:36;;;;;;;12.10;7.22;;;5.60;1.00;;;;;;6234255;23;20231;-84
2023/01/06 07:58:05;;;;;;;14.30;5.57;;;5.60;1.00;;;;;;6232518;23;20207;-84
2023/01/06 08:00:33;;;;;;;9.75;6.30;;;5.50;1.00;;;;;;6233550;23;20283;-83
2023/01/06 08:03:03;;;;;;;12.60;5.97;;;5.60;1.00;;;;;;6233588;23;20235;-84
2023/01/06 08:05:30;;;;;;;14.93;6.00;;;5.50;1.00;;;;;;6233997;23;20202;-83
2023/01/06 08:07:58;;;;;;;8.35;5.32;;;5.60;1.00;;;;;;6233852;23;20732;-83
2023/01/06 08:10:28;;;;;;;12.30;7.20;;;5.60;1.00;;;;;;6234558;23;20185;-84
2023/01/06 08:12:55;;;;;;;12.55;6.03;;;5.90;1.00;;;;;;6236144;23;20180;-83
2023/01/06 08:15:22;;;;;;;12.07;7.85;;;5.60;1.00;;;;;;6244515;23;20159;-83
2023/01/06 08:17:52;;;;;;;9.23;5.85;;;5.60;1.00;;;;;;6244455;23;20202;-83
2023/01/06 08:20:19;;;;;;;12.80;7.25;;;5.60;1.00;;;;;;6237735;23;20163;-85
2023/01/06 08:22:46;;;;;;;12.73;7.65;;;5.70;1.00;;;;;;6235160;23;20187;-84
2023/01/06 08:25:14;;;;;;;8.60;6.40;;;5.70;1.00;;;;;;6233564;23;20624;-83
2023/01/06 08:27:41;;;;;;;15.70;6.75;;;5.70;1.00;;;;;;6238025;23;20698;-83
2023/01/06 08:30:09;;;;;;;10.18;8.55;;;5.80;1.00;;;;;;6237046;23;20195;-82
2023/01/06 08:32:36;;;;;;;11.18;7.53;;;5.70;1.00;;;;;;6236161;23;20179;-83
2023/01/06 08:35:03;;;;;;;11.93;8.38;;;5.70;1.00;;;;;;6242972;23;20179;-81
2023/01/06 08:37:30;;;;;;;12.02;9.38;;;5.70;1.00;;;;;;6243463;22;20202;-82
2023/01/06 08:39:57;;;;;;;10.07;7.93;;;5.70;1.00;;;;;;6239470;23;20214;-81
2023/01/06 08:42:25;;;;;;;14.70;9.30;;;5.70;1.00;;;;;;6239515;23;20223;-81
2023/01/06 08:44:52;;;;;;;16.63;10.25;;;5.80;1.00;;;;;;6238947;23;20179;-83
2023/01/06 08:47:18;;;;;;;20.13;11.43;;;5.30;1.00;;;;;;6230936;23;20250;-83
2023/01/06 08:49:45;;;;;;;18.15;11.73;;;5.90;1.00;;;;;;6231419;23;20182;-83
2023/01/06 08:52:12;;;;;;;11.25;9.13;;;5.90;1.00;;;;;;6234649;23;20203;-83
2023/01/06 08:54:39;;;;;;;16.02;11.60;;;6.00;1.00;;;;;;6236955;23;20180;-82
2023/01/06 08:57:07;;;;;;;17.60;9.55;;;5.70;1.00;;;;;;6237647;23;20186;-83
2023/01/06 08:59:36;;;;;;;13.60;10.02;;;5.90;1.00;;;;;;6238970;23;20242;-82
2023/01/06 09:02:02;;;;;;;14.05;10.30;;;5.90;1.00;;;;;;6236001;23;20199;-83
2023/01/06 09:04:29;;;;;;;19.45;9.80;;;6.00;1.00;;;;;;6233240;23;20203;-83
2023/01/06 09:06:56;;;;;;;18.35;11.25;;;6.00;1.00;;;;;;6236508;23;20180;-82
2023/01/06 09:09:28;;;;;;;15.57;9.80;;;6.20;1.00;;;;;;6235212;23;20230;-83
2023/01/06 09:11:55;;;;;;;16.20;10.90;;;6.40;1.00;;;;;;6233451;23;20167;-83
2023/01/06 09:14:22;;;;;;;17.50;11.10;;;6.10;1.00;;;;;;6232682;23;20179;-83
2023/01/06 09:16:50;;;;;;;18.10;10.00;;;6.20;1.00;;;;;;6231994;23;20206;-83
2023/01/06 09:19:17;;;;;;;15.82;10.90;;;6.20;1.00;;;;;;6233356;23;20195;-83
2023/01/06 09:21:45;;;;;;;20.98;11.82;;;6.30;1.00;;;;;;6233182;23;20210;-83
2023/01/06 09:24:13;;;;;;;19.98;13.40;;;6.40;1.00;;;;;;6232442;23;20179;-83
2023/01/06 09:26:40;;;;;;;14.93;9.93;;;6.40;1.00;;;;;;6227942;23;20514;-83
2023/01/06 09:29:07;;;;;;;15.43;11.23;;;6.40;1.00;;;;;;6227797;23;20262;-83
2023/01/06 09:31:34;;;;;;;17.23;11.25;;;6.50;1.00;;;;;;6220207;23;20264;-81
2023/01/06 09:34:02;;;;;;;14.45;9.07;;;6.40;1.00;;;;;;6223101;23;20179;-82
2023/01/06 09:36:29;;;;;;;17.30;10.98;;;6.50;1.00;;;;;;6227801;23;20556;-82
2023/01/06 09:38:56;;;;;;;15.82;10.15;;;6.50;1.00;;;;;;6232442;23;20199;-82
2023/01/06 09:41:46;;;;;;;18.85;10.60;;;6.60;1.00;;;;;;6227100;23;20179;-83
2023/01/06 09:44:17;;;;;;;14.23;10.68;;;6.60;1.00;;;;;;6227851;23;20265;-82
2023/01/06 09:46:46;;;;;;;19.27;11.63;;;6.60;1.00;;;;;;6229320;23;20215;-82
2023/01/06 09:49:24;;;;;;;18.25;10.75;;;6.60;1.00;;;;;;6230202;23;20203;-82
2023/01/06 09:51:53;;;;;;;19.33;10.40;;;6.70;1.00;;;;;;6229712;23;20163;-81
2023/01/06 09:54:23;;;;;;;18.02;11.07;;;6.70;1.00;;;;;;6230518;23;20198;-83
2023/01/06 09:56:59;;;;;;;14.38;10.68;;;6.70;1.00;;;;;;6230411;23;20203;-83
2023/01/06 09:59:31;;;;;;;19.63;11.48;;;6.80;1.00;;;;;;6230474;23;20214;-83
2023/01/06 10:02:01;;;;;;;20.77;10.80;;;6.80;1.00;;;;;;6231149;23;20192;-84
2023/01/06 10:04:31;;;;;;;17.95;10.65;;;6.80;1.00;;;;;;6229766;23;20235;-83
2023/01/06 10:07:12;;;;;;;18.92;10.98;;;7.20;1.00;;;;;;6232966;23;20231;-84
2023/01/06 10:09:48;;;;;;;17.33;11.65;;;6.90;1.00;;;;;;6229504;23;20232;-83
2023/01/06 10:12:27;;;;;;;15.43;11.13;;;6.90;1.00;;;;;;6231484;23;20170;-83
2023/01/06 10:15:07;;;;;;;20.55;13.20;;;7.00;1.00;;;;;;6230922;23;20163;-83
2023/01/06 10:17:47;;;;;;;21.92;12.50;;;7.00;1.00;;;;;;6232385;23;20223;-84
2023/01/06 10:20:32;;;;;;;16.00;11.25;;;7.10;1.00;;;;;;6232689;23;20163;-83
2023/01/06 10:23:11;;;;;;;19.50;11.25;;;7.10;1.00;;;;;;6232286;23;20571;-83
2023/01/06 10:25:41;;;;;;;18.50;11.65;;;7.20;1.00;;;;;;6230670;23;20191;-83
2023/01/06 10:28:16;;;;;;;16.85;12.68;;;7.20;1.00;;;;;;6231971;23;20238;-83
2023/01/06 10:30:47;;;;;;;20.02;11.45;;;7.30;1.00;;;;;;6231639;23;20186;-83
2023/01/06 10:33:22;;;;;;;23.35;14.95;;;7.30;1.00;;;;;;6232061;23;20186;-83
2023/01/06 10:35:50;;;;;;;18.00;12.77;;;7.40;1.00;;;;;;6232085;23;20263;-81
2023/01/06 10:38:20;;;;;;;18.60;11.30;;;7.30;1.00;;;;;;6230673;23;20222;-84
2023/01/06 10:40:47;;;;;;;16.50;11.60;;;7.30;1.00;;;;;;6242269;22;20175;-81
2023/01/06 10:43:14;;;;;;;21.40;12.55;;;7.50;1.00;;;;;;6244057;22;20151;-82
2023/01/06 10:45:43;;;;;;;19.00;12.55;;;7.60;1.00;;;;;;6239558;23;20199;-83
2023/01/06 10:48:13;;;;;;;18.52;12.88;;;7.70;1.00;;;;;;6233945;23;20298;-83
2023/01/06 10:50:40;;;;;;;16.83;11.93;;;7.70;1.00;;;;;;6230797;23;20179;-83
2023/01/06 10:53:11;;;;;;;19.20;12.57;;;7.80;1.00;;;;;;6233375;23;20202;-84
2023/01/06 10:55:45;;;;;;;18.80;12.43;;;7.90;1.00;;;;;;6237382;23;20453;-82
2023/01/06 10:58:22;;;;;;;15.95;11.45;;;7.90;1.00;;;;;;6241247;23;20226;-83
2023/01/06 11:00:57;;;;;;;15.43;11.75;;;7.90;1.00;;;;;;6238522;23;20187;-83
2023/01/06 11:03:24;;;;;;;16.87;11.00;;;8.00;1.00;;;;;;6236186;23;20213;-83
2023/01/06 11:06:01;;;;;;;12.60;9.63;;;8.00;1.00;;;;;;6239690;23;20430;-83
2023/01/06 11:08:30;;;;;;;12.30;10.20;;;8.10;1.00;;;;;;6233697;23;20444;-83
2023/01/06 11:10:58;;;;;;;15.17;11.00;;;8.20;1.00;;;;;;6234673;23;20400;-84
2023/01/06 11:13:28;;;;;;;12.73;10.47;;;8.40;9.10;;;;;;6234421;23;20418;-84
2023/01/06 11:15:55;;;;;;;12.67;9.20;;;8.20;1.00;;;;;;6234253;23;20441;-83
2023/01/06 11:18:25;;;;;;;18.63;10.33;;;8.20;1.00;;;;;;6235475;23;20461;-84
2023/01/06 11:21:08;;;;;;;16.20;11.40;;;8.50;1.50;;;;;;6239826;23;20409;-84
2023/01/06 11:23:38;;;;;;;12.00;9.23;;;8.30;1.00;;;;;;6230265;23;20485;-83
2023/01/06 11:26:13;;;;;;;15.30;10.17;;;8.30;1.00;;;;;;6231946;23;20422;-84
2023/01/06 11:28:40;;;;;;;10.90;8.40;;;8.40;1.00;;;;;;6234464;23;20467;-83
2023/01/06 11:31:10;;;;;;;17.60;9.60;;;8.40;1.00;;;;;;6235060;23;20464;-83
2023/01/06 11:33:47;;;;;;;11.40;9.37;;;8.40;1.00;;;;;;6235256;23;20437;-83
2023/01/06 11:36:14;;;;;;;15.00;9.87;;;8.40;15.10;;;;;;6234482;23;20365;-83
2023/01/06 11:38:46;;;;;;;10.70;8.40;;;8.50;1.00;;;;;;6233961;23;20505;-83
2023/01/06 11:41:20;;;;;;;14.83;9.57;;;8.50;1.00;;;;;;6234375;23;20387;-84
2023/01/06 11:43:47;;;;;;;11.50;9.37;;;8.50;1.00;;;;;;6233743;23;20413;-82
2023/01/06 11:46:15;;;;;;;12.63;10.60;;;8.60;1.00;;;;;;6232610;23;20385;-84
2023/01/06 11:48:46;;;;;;;17.57;12.80;;;8.60;1.00;;;;;;6233545;23;20449;-82
2023/01/06 11:51:13;;;;;;;20.03;12.40;;;8.60;1.00;;;;;;6232860;23;20422;-83
2023/01/06 11:53:54;;;;;;;18.37;12.50;;;8.70;1.00;;;;;;6236588;23;20455;-81
2023/01/06 11:56:23;;;;;;;14.00;11.60;;;8.70;1.00;;;;;;6242294;23;20402;-83
2023/01/06 11:58:58;;;;;;;13.57;10.33;;;8.70;1.00;;;;;;6244430;22;20389;-82
2023/01/06 12:01:32;;;;;;;13.67;10.37;;;8.70;1.00;;;;;;6238565;23;20376;-84
2023/01/06 12:04:07;;;;;;;15.40;10.47;;;8.80;1.00;;;;;;6235151;23;20430;-84
2023/01/06 12:06:37;;;;;;;13.77;9.90;;;8.80;1.00;;;;;;6240546;23;20426;-84
2023/01/06 12:09:10;;;;;;;15.00;9.20;;;8.80;1.00;;;;;;6243711;23;20426;-82
2023/01/06 12:11:46;;;;;;;15.97;10.20;;;8.90;30.10;;;;;;6242655;22;20381;-81
2023/01/06 12:14:16;;;;;;;13.83;9.63;;;8.80;1.00;;;;;;6242477;23;20402;-81
2023/01/06 12:16:58;;;;;;;15.17;9.90;;;8.90;1.00;;;;;;6236411;23;20426;-85
2023/01/06 12:19:32;;;;;;;17.97;9.60;;;8.90;1.00;;;;;;6228444;23;20401;-82
2023/01/06 12:22:00;;;;;;;13.90;9.87;;;9.00;1.00;;;;;;6223578;23;20414;-82
2023/01/06 12:24:31;;;;;;;16.13;9.80;;;9.00;1.00;;;;;;6227878;23;20490;-83
2023/01/06 12:27:04;;;;;;;16.53;9.63;;;9.00;1.00;;;;;;6233797;23;20437;-83
2023/01/06 12:29:33;;;;;;;10.23;7.63;;;9.00;1.00;;;;;;6224336;23;20426;-82
2023/01/06 12:32:07;;;;;;;9.30;8.37;;;9.00;1.00;;;;;;6220466;23;20434;-82
2023/01/06 12:34:38;;;;;;;11.77;8.30;;;9.10;1.00;;;;;;6228453;23;20701;-82
2023/01/06 12:37:15;;;;;;;11.17;8.47;;;9.20;36.00;;;;;;6231489;23;20473;-81
2023/01/06 12:39:51;;;;;;;11.13;7.70;;;9.10;1.00;;;;;;6228891;23;20470;-83
2023/01/06 12:42:25;;;;;;;13.10;8.37;;;9.20;1.00;;;;;;6224008;23;20391;-83
2023/01/06 12:44:57;;;;;;;11.17;8.10;;;9.30;1.00;;;;;;6226022;23;20394;-84
2023/01/06 12:47:28;;;;;;;13.63;7.03;;;9.30;1.00;;;;;;6224009;23;20488;-83
2023/01/06 12:49:58;;;;;;;16.80;7.67;;;9.30;1.00;;;;;;6224713;23;20477;-83
2023/01/06 12:52:31;;;;;;;11.77;7.83;;;9.40;1.00;;;;;;6239375;23;20410;-81
2023/01/06 12:54:59;;;;;;;7.73;6.30;;;9.40;1.00;;;;;;6239430;23;20389;-81
2023/01/06 12:57:46;;;;;;;9.00;7.33;;;9.40;1.00;;;;;;6238768;23;20445;-81
2023/01/06 13:00:28;;;;;;;7.00;5.33;;;9.70;1.00;;;;;;6247914;22;20525;-82
2023/01/06 13:03:25;;;;;;;7.27;6.20;;;9.50;1.00;;;;;;6252932;22;20424;-82
2023/01/06 13:06:04;;;;;;;8.10;5.80;;;9.60;1.00;;;;;;6248524;23;20385;-83
2023/01/06 13:08:51;;;;;;;10.13;6.07;;;9.50;1.00;;;;;;6246915;22;20388;-82
2023/01/06 13:11:30;;;;;;;6.60;5.13;;;9.60;1.00;;;;;;6222743;23;20390;-82
2023/01/06 13:14:06;;;;;;;6.20;5.60;;;9.60;1.00;;;;;;6224715;23;20383;-82
2023/01/06 13:16:40;;;;;;;6.77;4.70;;;9.60;1.00;;;;;;6223240;23;20445;-82
2023/01/06 13:19:20;;;;;;;6.03;5.43;;;9.60;1.00;;;;;;6234445;23;20423;-82
2023/01/06 13:21:48;;;;;;;7.93;4.40;;;9.70;1.00;;;;;;6241364;23;20383;-83
2023/01/06 13:24:39;;;;;;;6.87;4.50;;;9.70;1.00;;;;;;6240785;23;20410;-83
2023/01/06 13:27:18;;;;;;;8.97;5.47;;;9.60;1.00;;;;;;6222979;23;20376;-82
2023/01/06 13:30:02;;;;;;;6.20;4.83;;;9.80;1.00;;;;;;6230743;23;20449;-82
2023/01/06 13:32:46;;;;;;;3.87;3.57;;;9.80;1.00;;;;;;6222659;23;20425;-82
2023/01/06 13:35:27;;;;;;;5.47;4.20;;;9.80;1.00;;;;;;6221574;23;20394;-83